createdAt,value
2023-02-03T00:00:01.691Z,2.58
2023-02-03T00:02:38.545Z,2.63
2023-02-03T00:05:06.963Z,2.64
2023-02-03T00:07:36.175Z,2.63
2023-02-03T00:10:04.663Z,2.60
2023-02-03T00:12:32.499Z,2.55
2023-02-03T00:14:59.917Z,2.55
2023-02-03T00:17:27.401Z,2.52
2023-02-03T00:19:55.144Z,2.59
2023-02-03T00:22:22.654Z,2.61
2023-02-03T00:24:50.065Z,2.57
2023-02-03T00:27:17.942Z,2.61
2023-02-03T00:29:45.360Z,2.54
2023-02-03T00:32:12.921Z,2.54
2023-02-03T00:34:40.735Z,2.55
2023-02-03T00:37:08.261Z,2.49
2023-02-03T00:39:39.013Z,2.50
2023-02-03T00:42:06.825Z,2.45
2023-02-03T00:44:34.317Z,2.48
2023-02-03T00:47:01.800Z,2.43
2023-02-03T00:49:30.026Z,2.44
2023-02-03T00:51:57.545Z,2.43
2023-02-03T00:54:25.045Z,2.42
2023-02-03T00:56:52.835Z,2.43
2023-02-03T00:59:20.338Z,2.40
2023-02-03T01:01:49.948Z,2.39
2023-02-03T01:04:17.737Z,2.44
2023-02-03T01:06:45.251Z,2.37
2023-02-03T01:09:12.823Z,2.40
2023-02-03T01:11:40.676Z,2.38
2023-02-03T01:14:08.366Z,2.30
2023-02-03T01:16:38.274Z,2.32
2023-02-03T01:19:06.401Z,2.33
2023-02-03T01:21:36.105Z,2.29
2023-02-03T01:24:03.825Z,2.28
2023-02-03T01:26:31.677Z,2.25
2023-02-03T01:29:00.514Z,2.26
2023-02-03T01:31:31.156Z,2.29
2023-02-03T01:34:00.171Z,2.24
2023-02-03T01:36:30.630Z,2.28
2023-02-03T01:38:58.334Z,2.25
2023-02-03T01:41:29.568Z,2.24
2023-02-03T01:43:59.208Z,2.24
2023-02-03T01:46:38.165Z,2.25
2023-02-03T01:49:13.986Z,2.30
2023-02-03T01:51:44.503Z,2.32
2023-02-03T01:54:35.441Z,2.32
2023-02-03T01:57:07.857Z,2.31
2023-02-03T01:59:36.257Z,2.32
2023-02-03T02:02:06.036Z,2.30
2023-02-03T02:04:52.962Z,2.33
2023-02-03T02:07:20.507Z,2.24
2023-02-03T02:09:49.134Z,2.30
2023-02-03T02:12:16.686Z,2.28
2023-02-03T02:14:45.233Z,2.35
2023-02-03T02:17:26.700Z,2.29
2023-02-03T02:20:12.741Z,2.26
2023-02-03T02:22:49.454Z,2.34
2023-02-03T02:25:48.129Z,2.31
2023-02-03T02:28:41.312Z,2.34
2023-02-03T02:31:46.568Z,2.38
2023-02-03T02:34:20.465Z,2.37
2023-02-03T02:37:01.791Z,2.29
2023-02-03T02:39:37.559Z,2.32
2023-02-03T02:42:13.249Z,2.27
2023-02-03T02:44:56.366Z,2.28
2023-02-03T02:47:24.463Z,2.23
2023-02-03T02:50:19.901Z,2.24
2023-02-03T02:52:50.119Z,2.26
2023-02-03T02:55:27.830Z,2.26
2023-02-03T02:58:02.542Z,2.19
2023-02-03T03:00:31.961Z,2.13
2023-02-03T03:03:18.152Z,2.15
2023-02-03T03:05:54.078Z,2.13
2023-02-03T03:08:33.048Z,2.07
2023-02-03T03:11:03.451Z,1.98
2023-02-03T03:13:36.989Z,1.96
2023-02-03T03:16:08.764Z,2.03
2023-02-03T03:18:47.981Z,1.97
2023-02-03T03:21:22.831Z,1.99
2023-02-03T03:23:52.775Z,1.97
2023-02-03T03:26:41.861Z,1.94
2023-02-03T03:29:14.109Z,1.91
2023-02-03T03:31:42.408Z,1.90
2023-02-03T03:34:12.312Z,1.98
2023-02-03T03:37:19.414Z,1.98
2023-02-03T03:39:59.030Z,2.00
2023-02-03T03:42:36.158Z,1.96
2023-02-03T03:45:14.969Z,1.99
2023-02-03T03:47:53.984Z,2.00
2023-02-03T03:50:28.220Z,1.96
2023-02-03T03:52:58.328Z,1.95
2023-02-03T03:55:29.133Z,1.93
2023-02-03T03:58:02.144Z,1.91
2023-02-03T04:00:33.802Z,1.87
2023-02-03T04:03:08.628Z,1.84
2023-02-03T04:05:38.550Z,1.80
2023-02-03T04:08:06.734Z,1.79
2023-02-03T04:10:39.155Z,1.73
2023-02-03T04:13:08.762Z,1.70
2023-02-03T04:15:36.444Z,1.73
2023-02-03T04:18:04.685Z,1.60
2023-02-03T04:20:33.211Z,1.63
2023-02-03T04:23:00.736Z,1.57
2023-02-03T04:25:28.214Z,1.54
2023-02-03T04:27:56.109Z,1.45
2023-02-03T04:30:23.807Z,1.40
2023-02-03T04:32:51.271Z,1.42
2023-02-03T04:35:19.204Z,1.43
2023-02-03T04:37:46.744Z,1.38
2023-02-03T04:40:14.680Z,1.43
2023-02-03T04:42:42.510Z,1.52
2023-02-03T04:45:12.784Z,1.41
2023-02-03T04:47:40.313Z,1.43
2023-02-03T04:50:08.728Z,1.45
2023-02-03T04:52:36.201Z,1.35
2023-02-03T04:55:04.110Z,1.46
2023-02-03T04:57:32.044Z,1.52
2023-02-03T04:59:59.565Z,1.55
2023-02-03T05:02:27.049Z,1.59
2023-02-03T05:04:55.311Z,1.57
2023-02-03T05:07:22.805Z,1.55
2023-02-03T05:09:50.302Z,1.58
2023-02-03T05:12:18.076Z,1.59
2023-02-03T05:14:45.596Z,1.52
2023-02-03T05:17:13.267Z,1.49
2023-02-03T05:19:41.027Z,1.48
2023-02-03T05:22:08.507Z,1.48
2023-02-03T05:24:35.961Z,1.44
2023-02-03T05:27:03.837Z,1.58
2023-02-03T05:29:31.407Z,1.62
2023-02-03T05:31:58.935Z,1.61
2023-02-03T05:34:26.846Z,1.65
2023-02-03T05:36:54.333Z,1.60
2023-02-03T05:39:21.814Z,1.60
2023-02-03T05:41:52.629Z,1.61
2023-02-03T05:44:21.795Z,1.60
2023-02-03T05:46:50.421Z,1.65
2023-02-03T05:49:19.605Z,1.74
2023-02-03T05:51:47.393Z,1.77
2023-02-03T05:54:16.025Z,1.83
2023-02-03T05:56:43.568Z,1.89
2023-02-03T05:59:11.070Z,1.72
2023-02-03T06:01:39.038Z,1.80
2023-02-03T06:04:07.058Z,1.83
2023-02-03T06:06:34.662Z,1.84
2023-02-03T06:09:04.693Z,1.84
2023-02-03T06:11:33.494Z,1.86
2023-02-03T06:14:01.212Z,1.86
2023-02-03T06:16:29.733Z,1.85
2023-02-03T06:18:59.683Z,1.85
2023-02-03T06:21:28.261Z,1.86
2023-02-03T06:23:56.704Z,1.83
2023-02-03T06:26:25.515Z,1.86
2023-02-03T06:28:53.097Z,1.89
2023-02-03T06:31:20.753Z,1.88
2023-02-03T06:33:48.587Z,1.93
2023-02-03T06:36:16.187Z,1.90
2023-02-03T06:38:43.754Z,1.85
2023-02-03T06:41:11.538Z,1.81
2023-02-03T06:43:39.056Z,1.74
2023-02-03T06:46:06.653Z,1.74
2023-02-03T06:48:34.435Z,1.68
2023-02-03T06:51:02.060Z,1.78
2023-02-03T06:53:29.529Z,1.82
2023-02-03T06:55:57.289Z,1.82
2023-02-03T06:58:24.767Z,1.70
2023-02-03T07:00:56.046Z,1.63
2023-02-03T07:03:23.857Z,1.79
2023-02-03T07:05:51.282Z,1.75
2023-02-03T07:08:18.766Z,1.71
2023-02-03T07:10:46.497Z,1.73
2023-02-03T07:13:13.938Z,1.71
2023-02-03T07:15:41.447Z,1.79
2023-02-03T07:18:09.285Z,1.77
2023-02-03T07:20:36.715Z,1.83
2023-02-03T07:23:04.504Z,1.82
2023-02-03T07:25:32.425Z,1.84
2023-02-03T07:27:59.929Z,1.84
2023-02-03T07:30:27.864Z,1.91
2023-02-03T07:32:55.909Z,1.90
2023-02-03T07:35:23.622Z,1.88
2023-02-03T07:37:51.133Z,1.84
2023-02-03T07:40:19.579Z,1.84
2023-02-03T07:42:48.661Z,1.95
2023-02-03T07:45:18.094Z,1.97
2023-02-03T07:47:45.937Z,2.06
2023-02-03T07:50:13.456Z,2.05
2023-02-03T07:52:40.983Z,2.13
2023-02-03T07:55:09.042Z,2.17
2023-02-03T07:57:37.313Z,2.25
2023-02-03T08:00:05.229Z,2.28
2023-02-03T08:02:40.169Z,2.28
2023-02-03T08:05:08.607Z,2.34
2023-02-03T08:07:36.129Z,2.32
2023-02-03T08:10:04.414Z,2.41
2023-02-03T08:12:32.191Z,2.44
2023-02-03T08:14:59.657Z,2.50
2023-02-03T08:17:27.197Z,2.54
2023-02-03T08:19:54.965Z,2.54
2023-02-03T08:22:22.481Z,2.58
2023-02-03T08:24:49.982Z,2.56
2023-02-03T08:27:23.118Z,2.64
2023-02-03T08:29:50.836Z,2.66
2023-02-03T08:32:21.854Z,2.64
2023-02-03T08:34:49.840Z,2.68
2023-02-03T08:37:20.156Z,2.72
2023-02-03T08:39:48.085Z,2.79
2023-02-03T08:42:15.756Z,2.87
2023-02-03T08:44:44.275Z,2.90
2023-02-03T08:47:12.768Z,2.93
2023-02-03T08:49:40.990Z,2.97
2023-02-03T08:52:11.232Z,2.98
2023-02-03T08:54:39.921Z,3.08
2023-02-03T08:57:08.421Z,3.17
2023-02-03T08:59:38.911Z,3.23
2023-02-03T09:02:10.728Z,3.30
2023-02-03T09:04:38.405Z,3.35
2023-02-03T09:07:06.256Z,3.51
2023-02-03T09:09:36.735Z,3.61
2023-02-03T09:12:06.757Z,3.74
2023-02-03T09:14:35.363Z,3.89
2023-02-03T09:17:05.278Z,4.17
2023-02-03T09:19:35.424Z,4.47
2023-02-03T09:22:04.786Z,4.57
2023-02-03T09:24:32.475Z,4.79
2023-02-03T09:27:01.578Z,5.12
2023-02-03T09:29:29.688Z,5.09
2023-02-03T09:31:57.293Z,5.24
2023-02-03T09:34:24.907Z,5.46
2023-02-03T09:36:52.926Z,5.85
2023-02-03T09:39:20.462Z,6.16
2023-02-03T09:42:04.262Z,6.39
2023-02-03T09:44:37.694Z,6.49
2023-02-03T09:47:20.862Z,6.48
2023-02-03T09:49:51.119Z,6.33
2023-02-03T09:52:22.905Z,6.28
2023-02-03T09:55:26.056Z,5.97
2023-02-03T09:58:05.873Z,5.78
2023-02-03T10:00:42.678Z,5.61
2023-02-03T10:03:36.712Z,5.67
2023-02-03T10:06:35.876Z,5.54
2023-02-03T10:09:54.189Z,5.57
2023-02-03T10:13:12.529Z,5.44
2023-02-03T10:15:52.241Z,5.50
2023-02-03T10:18:33.704Z,5.50
2023-02-03T10:21:10.650Z,5.58
2023-02-03T10:23:41.186Z,5.63
2023-02-03T10:26:16.207Z,5.70
2023-02-03T10:29:06.899Z,5.93
2023-02-03T10:31:37.406Z,5.98
2023-02-03T10:34:17.085Z,6.04
2023-02-03T10:37:09.373Z,6.06
2023-02-03T10:39:44.823Z,6.41
2023-02-03T10:42:13.872Z,6.71
2023-02-03T10:44:49.129Z,7.10
2023-02-03T10:47:39.816Z,7.55
2023-02-03T10:50:14.751Z,7.51
2023-02-03T10:52:42.752Z,7.72
2023-02-03T10:55:25.336Z,7.95
2023-02-03T10:57:57.026Z,8.08
2023-02-03T11:00:30.175Z,8.31
2023-02-03T11:03:08.651Z,8.33
2023-02-03T11:05:36.651Z,8.27
2023-02-03T11:08:05.157Z,8.10
2023-02-03T11:10:36.181Z,7.83
2023-02-03T11:13:20.879Z,7.43
2023-02-03T11:15:51.469Z,7.22
2023-02-03T11:18:47.424Z,7.19
2023-02-03T11:21:29.928Z,7.07
2023-02-03T11:24:05.348Z,7.15
2023-02-03T11:26:46.809Z,7.19
2023-02-03T11:29:28.571Z,7.14
2023-02-03T11:31:58.767Z,7.02
2023-02-03T11:34:38.507Z,6.79
2023-02-03T11:37:38.480Z,6.71
2023-02-03T11:40:11.024Z,6.63
2023-02-03T11:42:43.606Z,6.62
2023-02-03T11:45:49.809Z,6.67
2023-02-03T11:48:35.843Z,6.72
2023-02-03T11:51:25.605Z,6.62
2023-02-03T11:54:14.619Z,6.51
2023-02-03T11:56:48.205Z,6.47
2023-02-03T11:59:39.789Z,6.37
2023-02-03T12:02:32.430Z,6.30
2023-02-03T12:05:13.356Z,6.28
2023-02-03T12:08:02.927Z,6.25
2023-02-03T12:10:52.102Z,6.33
2023-02-03T12:13:44.417Z,6.33
2023-02-03T12:16:33.529Z,6.39
2023-02-03T12:19:10.372Z,6.24
2023-02-03T12:21:47.582Z,6.29
2023-02-03T12:24:36.715Z,6.18
2023-02-03T12:27:36.573Z,6.24
2023-02-03T12:30:07.451Z,6.22
2023-02-03T12:32:42.628Z,6.19
2023-02-03T12:35:19.378Z,6.18
2023-02-03T12:38:02.891Z,6.12
2023-02-03T12:40:47.714Z,6.13
2023-02-03T12:43:42.693Z,6.22
2023-02-03T12:46:17.613Z,6.29
2023-02-03T12:49:06.691Z,6.32
2023-02-03T12:51:49.510Z,6.34
2023-02-03T12:54:23.409Z,6.40
2023-02-03T12:56:54.278Z,6.48
2023-02-03T12:59:30.835Z,6.50
2023-02-03T13:02:03.531Z,6.54
2023-02-03T13:04:41.689Z,6.52
2023-02-03T13:07:21.600Z,6.56
2023-02-03T13:10:14.124Z,6.62
2023-02-03T13:12:45.850Z,6.65
2023-02-03T13:15:30.721Z,6.66
2023-02-03T13:18:09.566Z,6.73
2023-02-03T13:20:38.137Z,6.83
2023-02-03T13:23:11.162Z,6.97
2023-02-03T13:26:00.631Z,7.09
2023-02-03T13:28:43.958Z,7.20
2023-02-03T13:31:45.928Z,7.21
2023-02-03T13:34:30.441Z,7.11
2023-02-03T13:37:22.340Z,7.09
2023-02-03T13:40:01.287Z,7.08
2023-02-03T13:42:37.450Z,7.08
2023-02-03T13:45:17.210Z,7.10
2023-02-03T13:47:51.392Z,7.12
2023-02-03T13:50:28.847Z,7.05
2023-02-03T13:53:15.167Z,7.03
2023-02-03T13:55:46.365Z,6.96
2023-02-03T13:58:24.675Z,6.90
2023-02-03T14:00:52.120Z,6.97
2023-02-03T14:03:25.637Z,6.95
2023-02-03T14:05:55.593Z,6.99
2023-02-03T14:08:26.528Z,6.94
2023-02-03T14:11:30.871Z,6.96
2023-02-03T14:14:04.585Z,6.91
2023-02-03T14:16:49.581Z,6.93
2023-02-03T14:19:23.001Z,6.89
2023-02-03T14:21:58.864Z,6.93
2023-02-03T14:24:42.738Z,6.91
2023-02-03T14:27:21.588Z,6.85
2023-02-03T14:30:09.538Z,6.83
2023-02-03T14:32:59.175Z,6.82
2023-02-03T14:35:33.562Z,6.77
2023-02-03T14:38:04.194Z,6.74
2023-02-03T14:40:59.874Z,6.67
2023-02-03T14:43:52.412Z,6.66
2023-02-03T14:46:32.073Z,6.63
2023-02-03T14:49:34.036Z,6.62
2023-02-03T14:52:13.725Z,6.60
2023-02-03T14:55:03.054Z,6.58
2023-02-03T14:57:44.102Z,6.58
2023-02-03T15:00:20.715Z,6.59
2023-02-03T15:03:06.718Z,6.58
2023-02-03T15:05:48.884Z,6.57
2023-02-03T15:08:34.168Z,6.53
2023-02-03T15:11:35.291Z,6.50
2023-02-03T15:14:27.107Z,6.53
2023-02-03T15:17:00.807Z,6.53
2023-02-03T15:19:33.734Z,6.44
2023-02-03T15:22:01.796Z,6.45
2023-02-03T15:24:36.972Z,6.43
2023-02-03T15:27:04.524Z,6.47
2023-02-03T15:29:34.509Z,6.44
2023-02-03T15:32:12.596Z,6.47
2023-02-03T15:34:46.464Z,6.45
2023-02-03T15:37:26.039Z,6.46
2023-02-03T15:39:57.158Z,6.39
2023-02-03T15:42:31.965Z,6.43
2023-02-03T15:45:49.268Z,6.46
2023-02-03T15:48:41.957Z,6.45
2023-02-03T15:51:27.008Z,6.42
2023-02-03T15:54:16.098Z,6.45
2023-02-03T15:56:56.492Z,6.44
2023-02-03T15:59:34.699Z,6.46
2023-02-03T16:02:14.736Z,6.44
2023-02-03T16:04:42.856Z,6.42
2023-02-03T16:07:36.596Z,6.39
2023-02-03T16:10:04.666Z,6.40
2023-02-03T16:12:33.778Z,6.39
2023-02-03T16:15:02.442Z,6.33
2023-02-03T16:17:34.620Z,6.29
2023-02-03T16:20:22.236Z,6.28
2023-02-03T16:23:03.957Z,6.19
2023-02-03T16:25:34.539Z,6.20
2023-02-03T16:28:23.588Z,6.10
2023-02-03T16:31:15.285Z,6.08
2023-02-03T16:34:06.886Z,6.06
2023-02-03T16:36:58.501Z,6.15
2023-02-03T16:39:45.468Z,6.15
2023-02-03T16:42:36.981Z,6.21
2023-02-03T16:45:33.403Z,6.15
2023-02-03T16:48:21.281Z,6.05
2023-02-03T16:50:57.565Z,6.08
2023-02-03T16:53:32.476Z,6.07
2023-02-03T16:56:02.613Z,6.09
2023-02-03T16:58:31.238Z,6.06
2023-02-03T17:01:01.340Z,6.05
2023-02-03T17:03:29.691Z,6.03
2023-02-03T17:05:57.780Z,5.98
2023-02-03T17:08:26.457Z,6.03
2023-02-03T17:10:54.330Z,6.04
2023-02-03T17:13:24.447Z,6.09
2023-02-03T17:15:52.962Z,6.06
2023-02-03T17:18:21.451Z,5.93
2023-02-03T17:20:49.192Z,5.88
2023-02-03T17:23:17.340Z,5.86
2023-02-03T17:25:47.599Z,5.81
2023-02-03T17:28:15.311Z,5.81
2023-02-03T17:30:42.916Z,5.87
2023-02-03T17:33:14.212Z,5.85
2023-02-03T17:35:45.583Z,5.85
2023-02-03T17:38:14.891Z,5.86
2023-02-03T17:54:40.108Z,5.96
2023-02-03T17:57:07.868Z,5.98
2023-02-03T17:59:37.875Z,6.00
2023-02-03T18:02:05.857Z,5.98
2023-02-03T18:04:33.849Z,5.92
2023-02-03T18:07:01.374Z,5.92
2023-02-03T18:09:28.950Z,5.76
2023-02-03T18:11:56.793Z,5.72
2023-02-03T18:14:24.345Z,5.74
2023-02-03T18:16:51.832Z,5.72
2023-02-03T18:19:19.769Z,5.76
2023-02-03T18:21:47.253Z,5.65
2023-02-03T18:24:15.112Z,5.58
2023-02-03T18:26:49.893Z,5.58
2023-02-03T18:29:18.307Z,5.63
2023-02-03T18:31:46.791Z,5.67
2023-02-03T18:34:16.681Z,5.56
2023-02-03T18:36:45.942Z,5.50
2023-02-03T18:39:15.292Z,5.43
2023-02-03T18:41:42.907Z,5.35
2023-02-03T18:44:10.514Z,5.35
2023-02-03T18:46:38.342Z,5.34
2023-02-03T18:49:09.295Z,5.38
2023-02-03T18:51:37.135Z,5.35
2023-02-03T18:54:05.014Z,5.38
2023-02-03T18:56:35.398Z,5.32
2023-02-03T18:59:10.484Z,5.30
2023-02-03T19:01:39.178Z,5.27
2023-02-03T19:04:07.228Z,5.23
2023-02-03T19:06:35.981Z,5.24
2023-02-03T19:09:05.548Z,5.20
2023-02-03T19:11:33.950Z,5.23
2023-02-03T19:14:01.539Z,5.24
2023-02-03T19:16:29.448Z,5.31
2023-02-03T19:18:56.960Z,5.27
2023-02-03T19:21:24.518Z,5.33
2023-02-03T19:23:52.485Z,5.34
2023-02-03T19:26:19.992Z,5.37
2023-02-03T19:28:47.636Z,5.38
2023-02-03T19:31:15.970Z,5.43
2023-02-03T19:33:43.707Z,5.42
2023-02-03T19:36:12.050Z,5.52
2023-02-03T19:38:39.938Z,5.54
2023-02-03T19:41:08.787Z,5.60
2023-02-03T19:43:36.371Z,5.64
2023-02-03T19:46:04.440Z,5.74
2023-02-03T19:48:32.166Z,5.79
2023-02-03T19:50:59.710Z,5.84
2023-02-03T19:53:27.791Z,5.88
2023-02-03T19:55:55.384Z,5.85
2023-02-03T19:58:24.188Z,5.87
2023-02-03T20:00:52.022Z,6.05
2023-02-03T20:03:20.002Z,6.17
2023-02-03T20:05:47.476Z,6.31
2023-02-03T20:08:16.800Z,6.52
2023-02-03T20:10:45.509Z,6.48
2023-02-03T20:13:14.216Z,6.51
2023-02-03T20:15:42.249Z,6.48
2023-02-03T20:18:10.119Z,6.48
2023-02-03T20:20:37.656Z,6.45
2023-02-03T20:23:05.352Z,6.43
2023-02-03T20:25:33.135Z,6.42
2023-02-03T20:28:02.674Z,6.44
2023-02-03T20:30:30.571Z,6.43
2023-02-03T20:32:58.815Z,6.46
2023-02-03T20:35:26.881Z,6.47
2023-02-03T20:37:54.367Z,6.50
2023-02-03T20:40:24.091Z,6.52
2023-02-03T20:42:53.167Z,6.64
2023-02-03T20:45:23.748Z,6.66
2023-02-03T20:47:51.936Z,6.70
2023-02-03T20:50:25.165Z,6.78
2023-02-03T20:52:56.882Z,6.78
2023-02-03T20:55:24.367Z,6.77
2023-02-03T20:57:54.292Z,6.69
2023-02-03T21:00:26.636Z,6.62
2023-02-03T21:03:12.897Z,6.49
2023-02-03T21:05:43.028Z,6.43
2023-02-03T21:08:13.543Z,6.35
2023-02-03T21:10:41.693Z,6.37
2023-02-03T21:13:26.890Z,6.34
2023-02-03T21:16:03.341Z,6.35
2023-02-03T21:18:38.614Z,6.33
2023-02-03T21:21:15.427Z,6.32
2023-02-03T21:23:47.312Z,6.26
2023-02-03T21:26:24.113Z,6.26
2023-02-03T21:28:54.557Z,6.21
2023-02-03T21:31:25.944Z,6.21
2023-02-03T21:33:55.565Z,6.21
2023-02-03T21:36:30.860Z,6.17
2023-02-03T21:39:00.113Z,6.18
2023-02-03T21:41:33.026Z,6.17
2023-02-03T21:44:00.625Z,6.18
2023-02-03T21:46:37.255Z,6.20
2023-02-03T21:49:04.930Z,6.17
2023-02-03T21:51:39.468Z,6.20
2023-02-03T21:54:22.485Z,6.18
2023-02-03T21:56:54.186Z,6.20
2023-02-03T21:59:26.174Z,6.17
2023-02-03T22:01:54.446Z,6.12
2023-02-03T22:04:22.292Z,6.07
2023-02-03T22:06:51.002Z,5.99
2023-02-03T22:09:20.849Z,5.84
2023-02-03T22:11:48.857Z,5.74
2023-02-03T22:14:17.748Z,5.65
2023-02-03T22:16:45.357Z,5.48
2023-02-03T22:19:13.515Z,5.40
2023-02-03T22:21:41.208Z,5.27
2023-02-03T22:24:08.746Z,5.16
2023-02-03T22:26:36.602Z,5.12
2023-02-03T22:29:05.342Z,5.06
2023-02-03T22:31:33.308Z,5.04
2023-02-03T22:34:03.579Z,4.99
2023-02-03T22:36:31.115Z,4.96
2023-02-03T22:38:58.756Z,4.96
2023-02-03T22:41:26.617Z,4.92
2023-02-03T22:43:54.193Z,4.89
2023-02-03T22:46:21.776Z,4.89
2023-02-03T22:48:49.629Z,4.85
2023-02-03T22:51:17.158Z,4.83
2023-02-03T22:53:44.708Z,4.78
2023-02-03T22:56:12.520Z,4.75
2023-02-03T22:58:40.018Z,4.75
2023-02-03T23:01:07.559Z,4.69
2023-02-03T23:03:35.392Z,4.63
2023-02-03T23:06:02.934Z,4.63
2023-02-03T23:08:30.521Z,4.64
2023-02-03T23:10:58.844Z,4.63
2023-02-03T23:13:26.818Z,4.60
2023-02-03T23:15:54.365Z,4.60
2023-02-03T23:18:22.223Z,4.67
2023-02-03T23:20:49.768Z,4.68
2023-02-03T23:23:17.251Z,4.66
2023-02-03T23:25:45.209Z,4.69
2023-02-03T23:28:12.715Z,4.67
2023-02-03T23:30:40.339Z,4.71
2023-02-03T23:33:08.218Z,4.75
2023-02-03T23:35:49.313Z,4.78
2023-02-03T23:38:18.136Z,4.84
2023-02-03T23:40:45.693Z,4.92
2023-02-03T23:43:13.889Z,4.93
2023-02-03T23:45:41.776Z,4.95
2023-02-03T23:48:09.458Z,5.01
2023-02-03T23:50:37.066Z,5.03
2023-02-03T23:53:05.058Z,5.00
2023-02-03T23:55:32.602Z,5.00
2023-02-03T23:58:00.125Z,4.97
